Time;durP1;ratioP1;P1;durP2;ratioP2;P2;SDS_P1;SDS_P2;PMS_P1;PMS_P2;Temp;Humidity;BMP_temperature;BMP_pressure;BME280_temperature;BME280_humidity;BME280_pressure;Samples;Min_cycle;Max_cycle;Signal;HPM_P1;HPM_P2
2022/07/09 00:01:42;;;;;;;12.85;4.25;;;;;;;;;;4967904;28;20050;-65
2022/07/09 00:04:11;;;;;;;13.43;4.18;;;;;;;;;;4983863;28;20046;-65
2022/07/09 00:06:38;;;;;;;14.57;4.50;;;;;;;;;;4984330;28;20074;-65
2022/07/09 00:09:06;;;;;;;21.55;5.05;;;;;;;;;;4983237;28;20062;-64
2022/07/09 00:11:33;;;;;;;16.05;5.25;;;;;;;;;;4983738;28;20050;-65
2022/07/09 00:14:00;;;;;;;13.68;4.75;;;;;;;;;;4985352;28;20536;-65
2022/07/09 00:16:27;;;;;;;11.85;4.63;;;;;;;;;;4984873;28;20112;-65
2022/07/09 00:18:54;;;;;;;13.52;4.32;;;;;;;;;;4984104;28;20080;-64
2022/07/09 00:21:23;;;;;;;14.77;4.47;;;;;;;;;;4984654;28;20043;-65
2022/07/09 00:23:50;;;;;;;11.65;3.50;;;;;;;;;;4981165;28;20463;-65
2022/07/09 00:26:18;;;;;;;9.05;3.50;;;;;;;;;;4982682;28;20054;-65
2022/07/09 00:28:45;;;;;;;7.60;3.10;;;;;;;;;;4984826;28;20045;-65
2022/07/09 00:31:12;;;;;;;8.88;3.28;;;;;;;;;;4985596;28;20492;-65
2022/07/09 00:33:40;;;;;;;8.80;3.25;;;;;;;;;;4983323;28;20378;-65
2022/07/09 00:36:07;;;;;;;9.15;2.92;;;;;;;;;;4984214;28;20050;-65
2022/07/09 00:38:36;;;;;;;10.23;3.38;;;;;;;;;;4970732;28;20132;-65
2022/07/09 00:41:03;;;;;;;9.63;2.72;;;;;;;;;;4990671;28;20061;-65
2022/07/09 00:43:31;;;;;;;8.77;2.80;;;;;;;;;;4984278;28;20656;-65
2022/07/09 00:45:58;;;;;;;6.22;2.47;;;;;;;;;;4982756;28;20054;-65
2022/07/09 00:48:25;;;;;;;9.15;3.00;;;;;;;;;;4984172;28;20076;-65
2022/07/09 00:50:53;;;;;;;8.88;2.97;;;;;;;;;;4980965;28;20050;-65
2022/07/09 00:53:22;;;;;;;9.23;3.22;;;;;;;;;;4983764;28;20057;-66
2022/07/09 00:55:51;;;;;;;10.13;3.10;;;;;;;;;;4983826;28;20141;-65
2022/07/09 00:58:19;;;;;;;10.75;3.00;;;;;;;;;;4963862;28;20058;-65
2022/07/09 01:00:46;;;;;;;6.32;2.60;;;;;;;;;;4987805;28;20053;-65
2022/07/09 01:03:13;;;;;;;13.65;2.97;;;;;;;;;;4967922;28;20068;-65
2022/07/09 01:05:41;;;;;;;6.63;2.70;;;;;;;;;;4984370;28;20057;-65
2022/07/09 01:08:09;;;;;;;8.40;2.65;;;;;;;;;;4982716;28;20057;-65
2022/07/09 01:10:37;;;;;;;8.40;2.70;;;;;;;;;;4982404;28;20134;-65
2022/07/09 01:13:06;;;;;;;10.85;2.70;;;;;;;;;;4984855;28;20057;-65
2022/07/09 01:15:33;;;;;;;9.65;2.75;;;;;;;;;;4982672;28;20621;-65
2022/07/09 01:18:01;;;;;;;7.75;2.50;;;;;;;;;;4983341;28;20050;-65
2022/07/09 01:20:30;;;;;;;11.35;2.55;;;;;;;;;;4982719;28;20050;-65
2022/07/09 01:22:57;;;;;;;9.50;2.50;;;;;;;;;;4984180;28;20572;-64
2022/07/09 01:25:29;;;;;;;8.25;2.55;;;;;;;;;;4984529;28;20100;-65
2022/07/09 01:27:56;;;;;;;9.55;2.95;;;;;;;;;;4985067;28;20083;-65
2022/07/09 01:30:27;;;;;;;8.80;2.55;;;;;;;;;;4984150;28;20072;-64
2022/07/09 01:32:54;;;;;;;8.43;3.03;;;;;;;;;;4983924;28;20061;-65
2022/07/09 01:35:22;;;;;;;7.43;3.00;;;;;;;;;;4984049;28;20046;-65
2022/07/09 01:37:50;;;;;;;11.43;3.25;;;;;;;;;;4983407;28;20060;-64
2022/07/09 01:40:18;;;;;;;9.27;3.45;;;;;;;;;;4983840;28;20086;-64
2022/07/09 01:42:45;;;;;;;9.68;3.25;;;;;;;;;;4983259;28;20043;-65
2022/07/09 01:45:12;;;;;;;10.63;3.45;;;;;;;;;;4984265;28;20076;-65
2022/07/09 01:47:39;;;;;;;8.88;3.10;;;;;;;;;;4983307;28;20050;-65
2022/07/09 01:50:07;;;;;;;7.10;3.20;;;;;;;;;;4966933;28;20043;-65
2022/07/09 01:52:35;;;;;;;11.27;3.30;;;;;;;;;;4982286;28;20519;-65
2022/07/09 01:55:04;;;;;;;9.25;3.33;;;;;;;;;;4982054;28;20521;-65
2022/07/09 01:57:31;;;;;;;11.82;4.18;;;;;;;;;;4983156;28;20553;-65
2022/07/09 01:59:58;;;;;;;9.82;2.95;;;;;;;;;;4984239;28;20061;-65
2022/07/09 02:02:26;;;;;;;10.65;3.35;;;;;;;;;;4984481;28;20046;-65
2022/07/09 02:04:53;;;;;;;9.55;3.60;;;;;;;;;;4984005;28;20072;-65
2022/07/09 02:07:20;;;;;;;10.50;3.60;;;;;;;;;;4983434;28;20066;-65
2022/07/09 02:09:48;;;;;;;9.68;3.53;;;;;;;;;;4980868;28;20105;-65
2022/07/09 02:12:17;;;;;;;10.07;3.40;;;;;;;;;;4980114;28;20046;-65
2022/07/09 02:14:44;;;;;;;9.45;3.70;;;;;;;;;;4977117;28;20054;-65
2022/07/09 02:17:11;;;;;;;6.47;3.53;;;;;;;;;;4978998;28;20497;-65
2022/07/09 02:19:39;;;;;;;7.90;3.67;;;;;;;;;;4983228;28;20058;-64
2022/07/09 02:22:06;;;;;;;8.52;3.83;;;;;;;;;;4982396;28;20608;-65
2022/07/09 02:24:33;;;;;;;10.43;4.15;;;;;;;;;;4982596;28;20050;-65
2022/07/09 02:27:00;;;;;;;10.00;4.10;;;;;;;;;;4981891;28;20046;-65
2022/07/09 02:29:29;;;;;;;13.68;4.47;;;;;;;;;;4982947;28;20050;-65
2022/07/09 02:31:57;;;;;;;9.30;4.22;;;;;;;;;;4981409;28;20038;-65
2022/07/09 02:34:24;;;;;;;8.10;4.20;;;;;;;;;;4983968;28;20227;-65
2022/07/09 02:36:51;;;;;;;6.25;3.92;;;;;;;;;;4972184;28;20049;-65
2022/07/09 02:39:19;;;;;;;8.18;4.20;;;;;;;;;;4966355;28;20080;-65
2022/07/09 02:41:46;;;;;;;9.80;3.83;;;;;;;;;;4980622;28;20039;-66
2022/07/09 02:44:13;;;;;;;10.88;3.90;;;;;;;;;;4982920;28;20721;-65
2022/07/09 02:46:42;;;;;;;8.25;3.67;;;;;;;;;;4980125;28;20066;-65
2022/07/09 02:49:10;;;;;;;13.35;4.20;;;;;;;;;;4982842;28;20058;-65
2022/07/09 02:51:37;;;;;;;10.32;3.83;;;;;;;;;;4965945;28;20112;-65
2022/07/09 02:54:05;;;;;;;9.98;4.30;;;;;;;;;;4982386;28;20053;-66
2022/07/09 02:56:32;;;;;;;8.65;3.72;;;;;;;;;;4981605;28;20046;-65
2022/07/09 02:58:59;;;;;;;7.03;3.67;;;;;;;;;;4983928;28;20050;-65
2022/07/09 03:01:27;;;;;;;9.23;3.85;;;;;;;;;;4982858;28;20658;-65
2022/07/09 03:03:56;;;;;;;8.23;3.88;;;;;;;;;;4979799;28;20053;-65
2022/07/09 03:06:23;;;;;;;9.27;3.58;;;;;;;;;;4981758;28;20488;-65
2022/07/09 03:08:51;;;;;;;8.93;3.70;;;;;;;;;;4982375;28;20061;-65
2022/07/09 03:11:18;;;;;;;11.02;3.75;;;;;;;;;;4979018;28;20097;-65
2022/07/09 03:13:45;;;;;;;6.85;3.65;;;;;;;;;;4982519;28;20112;-65
2022/07/09 03:16:12;;;;;;;6.65;3.58;;;;;;;;;;4981745;28;20502;-65
2022/07/09 03:18:40;;;;;;;11.00;3.97;;;;;;;;;;4981082;28;20054;-64
2022/07/09 03:21:11;;;;;;;10.75;4.13;;;;;;;;;;4967098;28;20081;-64
2022/07/09 03:23:38;;;;;;;12.85;4.53;;;;;;;;;;4981860;28;20133;-64
2022/07/09 03:26:05;;;;;;;9.25;4.15;;;;;;;;;;4981814;28;20062;-65
2022/07/09 03:28:33;;;;;;;9.27;4.10;;;;;;;;;;4978090;28;20066;-65
2022/07/09 03:31:00;;;;;;;11.77;3.95;;;;;;;;;;4978092;28;20105;-65
2022/07/09 03:33:27;;;;;;;11.55;4.03;;;;;;;;;;4981253;28;20042;-65
2022/07/09 03:35:55;;;;;;;13.30;4.47;;;;;;;;;;4980359;28;20112;-65
2022/07/09 03:38:24;;;;;;;13.43;4.68;;;;;;;;;;4962934;28;20072;-65
2022/07/09 03:40:52;;;;;;;11.20;4.10;;;;;;;;;;4981558;28;20488;-65
2022/07/09 03:43:19;;;;;;;13.48;5.07;;;;;;;;;;4981376;28;20129;-65
2022/07/09 03:45:46;;;;;;;11.95;4.20;;;;;;;;;;4982319;28;20054;-65
2022/07/09 03:48:14;;;;;;;11.05;4.95;;;;;;;;;;4979268;28;20112;-65
2022/07/09 03:50:41;;;;;;;12.15;4.45;;;;;;;;;;4981299;28;20058;-65
2022/07/09 03:53:08;;;;;;;12.45;4.32;;;;;;;;;;4979720;28;20405;-65
2022/07/09 03:55:37;;;;;;;13.57;4.68;;;;;;;;;;4981879;28;20054;-65
2022/07/09 03:58:04;;;;;;;9.90;4.22;;;;;;;;;;4962400;28;20062;-64
2022/07/09 04:00:31;;;;;;;9.48;4.18;;;;;;;;;;4985124;28;20050;-64
2022/07/09 04:02:59;;;;;;;6.93;3.85;;;;;;;;;;4967050;28;20508;-65
2022/07/09 04:05:26;;;;;;;8.38;3.85;;;;;;;;;;4979857;28;20137;-64
2022/07/09 04:07:53;;;;;;;7.38;3.42;;;;;;;;;;4980744;28;20731;-65
2022/07/09 04:10:20;;;;;;;9.82;3.55;;;;;;;;;;4981925;28;20050;-65
2022/07/09 04:12:49;;;;;;;10.25;3.70;;;;;;;;;;4981158;28;20046;-65
2022/07/09 04:15:16;;;;;;;6.93;3.30;;;;;;;;;;4981909;28;20068;-65
2022/07/09 04:17:43;;;;;;;9.88;3.90;;;;;;;;;;4982982;28;20046;-64
2022/07/09 04:20:11;;;;;;;7.78;3.20;;;;;;;;;;4985049;28;20050;-65
2022/07/09 04:22:38;;;;;;;9.05;3.25;;;;;;;;;;4984734;28;20047;-65
2022/07/09 04:25:06;;;;;;;11.05;3.03;;;;;;;;;;4986145;28;20116;-65
2022/07/09 04:27:34;;;;;;;7.47;2.65;;;;;;;;;;4983156;28;20117;-65
2022/07/09 04:30:02;;;;;;;6.70;2.60;;;;;;;;;;4984674;28;20097;-65
2022/07/09 04:32:29;;;;;;;8.90;2.50;;;;;;;;;;4984444;28;20050;-65
2022/07/09 04:34:57;;;;;;;8.90;2.20;;;;;;;;;;4987144;28;20050;-65
2022/07/09 04:37:24;;;;;;;9.80;2.50;;;;;;;;;;4982916;28;20062;-65
2022/07/09 04:39:51;;;;;;;8.70;2.47;;;;;;;;;;4981793;28;20076;-64
2022/07/09 04:42:19;;;;;;;9.70;2.50;;;;;;;;;;4985310;28;20050;-65
2022/07/09 04:44:46;;;;;;;4.47;2.25;;;;;;;;;;4987890;28;20038;-65
2022/07/09 04:47:15;;;;;;;8.20;2.13;;;;;;;;;;4985098;28;20442;-65
2022/07/09 04:49:42;;;;;;;8.65;2.40;;;;;;;;;;4984721;28;20042;-65
2022/07/09 04:52:09;;;;;;;9.18;2.45;;;;;;;;;;4986939;28;20066;-65
2022/07/09 04:54:36;;;;;;;6.35;2.45;;;;;;;;;;4984188;28;20109;-65
2022/07/09 04:57:04;;;;;;;11.55;2.38;;;;;;;;;;4981835;28;20062;-64
2022/07/09 04:59:31;;;;;;;7.80;2.72;;;;;;;;;;4985820;28;20050;-64
2022/07/09 05:01:58;;;;;;;6.97;2.00;;;;;;;;;;4985279;28;20054;-64
2022/07/09 05:04:27;;;;;;;7.00;2.30;;;;;;;;;;4982739;28;20448;-65
2022/07/09 05:06:54;;;;;;;6.97;2.88;;;;;;;;;;4982988;28;20054;-65
2022/07/09 05:09:21;;;;;;;7.38;2.30;;;;;;;;;;4984158;28;20046;-65
2022/07/09 05:11:48;;;;;;;6.03;2.20;;;;;;;;;;4966450;28;20124;-65
2022/07/09 05:14:16;;;;;;;3.35;1.80;;;;;;;;;;4982106;28;20057;-64
2022/07/09 05:16:44;;;;;;;8.18;2.47;;;;;;;;;;4984075;28;20091;-65
2022/07/09 05:19:11;;;;;;;5.95;2.10;;;;;;;;;;4981437;28;20053;-64
2022/07/09 05:21:41;;;;;;;10.32;2.35;;;;;;;;;;4981791;28;20387;-65
2022/07/09 05:24:08;;;;;;;8.23;2.13;;;;;;;;;;4982915;28;20051;-65
2022/07/09 05:26:35;;;;;;;7.75;1.98;;;;;;;;;;4987466;28;20053;-65
2022/07/09 05:29:03;;;;;;;7.78;2.28;;;;;;;;;;4981907;28;20057;-65
2022/07/09 05:31:30;;;;;;;9.20;2.17;;;;;;;;;;4981700;28;20055;-65
2022/07/09 05:33:57;;;;;;;7.68;2.08;;;;;;;;;;4984865;28;20157;-65
2022/07/09 05:36:24;;;;;;;8.32;2.08;;;;;;;;;;4983866;28;20050;-65
2022/07/09 05:38:53;;;;;;;7.20;2.20;;;;;;;;;;4967829;28;20061;-65
2022/07/09 05:41:22;;;;;;;6.90;2.20;;;;;;;;;;4983675;28;20058;-64
2022/07/09 05:43:49;;;;;;;9.35;2.03;;;;;;;;;;4986205;28;20726;-64
2022/07/09 05:46:16;;;;;;;11.18;2.28;;;;;;;;;;4982980;28;20047;-65
2022/07/09 05:48:44;;;;;;;7.65;1.80;;;;;;;;;;4983655;28;20054;-65
2022/07/09 05:51:11;;;;;;;5.88;1.58;;;;;;;;;;4982923;28;20108;-65
2022/07/09 05:53:38;;;;;;;6.25;1.88;;;;;;;;;;4983720;28;20054;-64
2022/07/09 05:56:07;;;;;;;9.85;1.80;;;;;;;;;;4981157;28;20515;-65
2022/07/09 05:58:34;;;;;;;9.23;1.83;;;;;;;;;;4984246;28;20054;-65
2022/07/09 06:01:02;;;;;;;5.68;1.77;;;;;;;;;;4983145;28;20046;-65
2022/07/09 06:03:29;;;;;;;8.35;1.98;;;;;;;;;;4983550;28;20873;-64
2022/07/09 06:05:56;;;;;;;9.05;1.90;;;;;;;;;;4981474;28;20057;-65
2022/07/09 06:08:24;;;;;;;7.65;1.83;;;;;;;;;;4985675;28;20516;-65
2022/07/09 06:10:52;;;;;;;5.60;1.63;;;;;;;;;;4983132;28;20456;-65
2022/07/09 06:13:20;;;;;;;9.18;2.05;;;;;;;;;;4960972;28;20051;-65
2022/07/09 06:15:47;;;;;;;6.65;1.55;;;;;;;;;;4982368;28;20555;-65
2022/07/09 06:18:15;;;;;;;10.15;2.22;;;;;;;;;;4982715;28;20050;-65
2022/07/09 06:20:42;;;;;;;10.45;1.90;;;;;;;;;;4982021;28;20396;-66
2022/07/09 06:23:09;;;;;;;8.90;1.90;;;;;;;;;;4982144;28;20198;-64
2022/07/09 06:25:37;;;;;;;10.95;2.00;;;;;;;;;;4947861;28;20051;-65
2022/07/09 06:28:04;;;;;;;8.50;1.85;;;;;;;;;;4982491;28;20627;-66
2022/07/09 06:30:33;;;;;;;8.55;1.90;;;;;;;;;;4984161;28;20109;-65
2022/07/09 06:33:01;;;;;;;8.68;2.00;;;;;;;;;;4978345;28;20685;-65
2022/07/09 06:35:28;;;;;;;8.40;2.10;;;;;;;;;;4983838;28;20054;-64
2022/07/09 06:37:55;;;;;;;13.43;1.90;;;;;;;;;;4961993;28;20117;-65
2022/07/09 06:40:22;;;;;;;9.27;2.13;;;;;;;;;;4988638;28;20120;-66
2022/07/09 06:42:50;;;;;;;7.47;1.50;;;;;;;;;;4963906;28;20441;-65
2022/07/09 06:45:17;;;;;;;13.18;2.30;;;;;;;;;;4965898;28;20054;-65
2022/07/09 06:47:45;;;;;;;12.00;1.85;;;;;;;;;;4982570;28;20405;-65
2022/07/09 06:50:13;;;;;;;13.07;2.17;;;;;;;;;;4983798;28;20093;-65
2022/07/09 06:52:40;;;;;;;11.90;2.03;;;;;;;;;;4981058;28;20066;-65
2022/07/09 06:55:07;;;;;;;13.88;2.40;;;;;;;;;;4982920;28;20520;-65
2022/07/09 06:57:35;;;;;;;13.35;2.58;;;;;;;;;;4981527;28;20046;-66
2022/07/09 07:00:03;;;;;;;10.80;1.90;;;;;;;;;;4981667;28;20358;-65
2022/07/09 07:02:30;;;;;;;13.73;2.10;;;;;;;;;;4981843;28;20126;-65
2022/07/09 07:04:59;;;;;;;9.85;2.08;;;;;;;;;;4981379;28;20050;-65
2022/07/09 07:07:26;;;;;;;16.83;2.35;;;;;;;;;;4982140;28;20084;-65
2022/07/09 07:09:53;;;;;;;11.25;2.00;;;;;;;;;;4986576;28;20112;-65
2022/07/09 07:12:20;;;;;;;14.05;2.38;;;;;;;;;;4978740;28;20054;-65
2022/07/09 07:14:47;;;;;;;8.07;1.83;;;;;;;;;;4981107;28;20050;-65
2022/07/09 07:17:15;;;;;;;12.32;2.30;;;;;;;;;;4979446;28;20112;-65
2022/07/09 07:19:42;;;;;;;9.07;2.15;;;;;;;;;;4981860;28;20187;-65
2022/07/09 07:22:10;;;;;;;13.23;2.65;;;;;;;;;;4986852;28;20656;-65
2022/07/09 07:24:37;;;;;;;12.45;2.28;;;;;;;;;;4980557;28;20116;-65
2022/07/09 07:27:05;;;;;;;11.55;1.98;;;;;;;;;;4987031;28;20054;-65
2022/07/09 07:29:32;;;;;;;8.05;1.75;;;;;;;;;;4984375;28;20058;-65
2022/07/09 07:32:00;;;;;;;8.13;1.83;;;;;;;;;;4972284;28;20055;-65
2022/07/09 07:34:27;;;;;;;9.88;2.03;;;;;;;;;;4987666;28;20042;-65
2022/07/09 07:36:54;;;;;;;15.73;2.75;;;;;;;;;;4987688;28;20038;-65
2022/07/09 07:39:24;;;;;;;8.77;2.03;;;;;;;;;;4983692;28;20080;-65
2022/07/09 07:41:52;;;;;;;9.68;2.25;;;;;;;;;;4983409;28;20046;-65
2022/07/09 07:44:19;;;;;;;12.00;2.70;;;;;;;;;;4984446;28;20042;-65
2022/07/09 07:46:46;;;;;;;9.73;2.33;;;;;;;;;;4983125;28;20050;-66
2022/07/09 07:49:13;;;;;;;7.50;1.60;;;;;;;;;;4987031;28;20472;-65
2022/07/09 07:51:41;;;;;;;7.85;2.03;;;;;;;;;;4970309;28;20062;-65
2022/07/09 07:54:08;;;;;;;10.45;1.80;;;;;;;;;;4984589;28;20473;-65
2022/07/09 07:56:39;;;;;;;11.05;1.77;;;;;;;;;;4985905;28;20058;-64
2022/07/09 07:59:07;;;;;;;7.60;1.60;;;;;;;;;;4968976;28;20050;-65
2022/07/09 08:01:34;;;;;;;7.85;1.42;;;;;;;;;;4984585;28;20046;-65
2022/07/09 08:04:01;;;;;;;13.27;1.90;;;;;;;;;;4986503;28;20517;-64
2022/07/09 08:06:28;;;;;;;7.38;1.75;;;;;;;;;;4984015;28;20057;-65
2022/07/09 08:08:56;;;;;;;20.27;2.70;;;;;;;;;;4985477;28;20054;-65
2022/07/09 08:11:23;;;;;;;10.73;2.00;;;;;;;;;;4985522;28;20043;-65
2022/07/09 08:13:51;;;;;;;11.98;2.08;;;;;;;;;;4984767;28;20046;-65
2022/07/09 08:16:19;;;;;;;9.25;2.30;;;;;;;;;;4983751;28;20104;-65
2022/07/09 08:18:47;;;;;;;12.65;1.80;;;;;;;;;;4986629;28;20494;-66
2022/07/09 08:21:14;;;;;;;8.38;1.92;;;;;;;;;;4984754;28;20071;-65
2022/07/09 08:23:55;;;;;;;10.32;1.80;;;;;;;;;;4984217;28;20050;-65
2022/07/09 08:26:23;;;;;;;9.95;2.00;;;;;;;;;;4986093;28;20042;-66
2022/07/09 08:28:52;;;;;;;9.88;2.10;;;;;;;;;;4984689;28;20651;-65
2022/07/09 08:31:20;;;;;;;10.65;2.53;;;;;;;;;;4982871;28;20049;-66
2022/07/09 08:33:47;;;;;;;11.15;1.98;;;;;;;;;;4967606;28;20520;-66
2022/07/09 08:36:15;;;;;;;10.20;2.10;;;;;;;;;;4983971;28;20042;-66
2022/07/09 08:38:43;;;;;;;10.70;2.20;;;;;;;;;;4987928;28;20054;-66
2022/07/09 08:41:10;;;;;;;9.00;2.17;;;;;;;;;;4988140;28;20050;-66
2022/07/09 08:43:38;;;;;;;11.48;2.13;;;;;;;;;;4981641;28;20066;-66
2022/07/09 08:46:07;;;;;;;9.50;1.90;;;;;;;;;;4984580;28;20054;-66
2022/07/09 08:48:35;;;;;;;10.23;2.10;;;;;;;;;;4984170;28;20042;-66
2022/07/09 08:51:03;;;;;;;16.90;2.60;;;;;;;;;;4985389;28;20108;-65
2022/07/09 08:53:30;;;;;;;6.35;1.77;;;;;;;;;;4984612;28;20112;-65
2022/07/09 08:55:58;;;;;;;6.50;1.80;;;;;;;;;;4981740;28;20050;-65
2022/07/09 08:58:25;;;;;;;7.22;1.60;;;;;;;;;;4984623;28;20077;-65
2022/07/09 09:00:52;;;;;;;6.43;1.90;;;;;;;;;;4983154;28;20058;-65
2022/07/09 09:03:21;;;;;;;7.45;1.90;;;;;;;;;;4965481;28;20447;-65
2022/07/09 09:06:01;;;;;;;7.78;1.88;;;;;;;;;;4983772;28;20482;-65
2022/07/09 09:08:29;;;;;;;8.07;1.95;;;;;;;;;;4985309;28;20043;-65
2022/07/09 09:10:56;;;;;;;11.07;2.35;;;;;;;;;;4967549;28;20046;-66
2022/07/09 09:13:23;;;;;;;10.85;2.38;;;;;;;;;;4987947;28;20050;-66
2022/07/09 09:15:50;;;;;;;12.40;1.80;;;;;;;;;;4982629;28;20050;-65
2022/07/09 09:18:17;;;;;;;14.45;2.15;;;;;;;;;;4983744;28;20054;-65
2022/07/09 09:20:49;;;;;;;11.68;2.05;;;;;;;;;;4965520;28;20073;-66
2022/07/09 09:23:19;;;;;;;8.48;1.83;;;;;;;;;;4970115;28;20058;-65
2022/07/09 09:25:47;;;;;;;10.95;2.47;;;;;;;;;;4967001;28;20100;-65
2022/07/09 09:28:14;;;;;;;7.13;1.60;;;;;;;;;;4986176;28;20129;-65
2022/07/09 09:30:43;;;;;;;15.43;2.33;;;;;;;;;;4983514;28;20145;-65
2022/07/09 09:33:10;;;;;;;8.48;2.00;;;;;;;;;;4965795;28;20156;-65
2022/07/09 09:35:43;;;;;;;9.60;2.10;;;;;;;;;;4980593;28;20113;-65
2022/07/09 09:38:12;;;;;;;19.60;2.65;;;;;;;;;;4984130;28;20054;-65
2022/07/09 09:40:39;;;;;;;9.38;2.20;;;;;;;;;;4981297;28;20100;-65
2022/07/09 09:43:07;;;;;;;10.15;2.35;;;;;;;;;;4984611;28;20161;-66
2022/07/09 09:45:34;;;;;;;7.95;1.88;;;;;;;;;;4984599;28;20050;-65
2022/07/09 09:48:01;;;;;;;13.57;2.08;;;;;;;;;;4983976;28;20354;-65
2022/07/09 09:50:29;;;;;;;10.02;1.70;;;;;;;;;;4983747;28;20057;-65
2022/07/09 09:52:56;;;;;;;9.10;1.80;;;;;;;;;;4981783;28;20041;-65
2022/07/09 09:55:25;;;;;;;12.95;2.38;;;;;;;;;;4987865;28;20571;-66
2022/07/09 09:57:53;;;;;;;10.80;2.15;;;;;;;;;;4983384;28;20081;-65
2022/07/09 10:00:20;;;;;;;9.32;1.90;;;;;;;;;;4985133;28;20050;-65
2022/07/09 10:02:50;;;;;;;12.70;2.03;;;;;;;;;;4980590;28;20437;-65
2022/07/09 10:05:17;;;;;;;6.97;1.50;;;;;;;;;;4980906;28;20049;-65
2022/07/09 10:07:45;;;;;;;12.05;1.63;;;;;;;;;;4982350;28;20072;-65
2022/07/09 10:10:18;;;;;;;9.52;2.50;;;;;;;;;;4981583;28;20519;-65
2022/07/09 10:12:47;;;;;;;12.18;1.77;;;;;;;;;;4981883;28;20109;-65
2022/07/09 10:15:24;;;;;;;11.77;2.45;;;;;;;;;;4979069;28;20101;-66
2022/07/09 10:17:52;;;;;;;9.73;2.08;;;;;;;;;;4982867;28;20129;-65
2022/07/09 10:20:19;;;;;;;7.97;1.98;;;;;;;;;;4965380;28;20058;-65
2022/07/09 10:22:47;;;;;;;11.40;2.15;;;;;;;;;;4981140;28;20397;-65
2022/07/09 10:25:24;;;;;;;8.73;2.00;;;;;;;;;;4983005;28;20050;-65
2022/07/09 10:27:53;;;;;;;8.73;2.00;;;;;;;;;;4980588;28;20116;-65
2022/07/09 10:30:24;;;;;;;7.20;1.73;;;;;;;;;;4981940;28;20054;-65
2022/07/09 10:33:02;;;;;;;8.02;1.80;;;;;;;;;;4980364;28;20048;-66
2022/07/09 10:35:30;;;;;;;10.77;1.73;;;;;;;;;;4962157;28;20058;-65
2022/07/09 10:37:57;;;;;;;9.60;1.58;;;;;;;;;;4977099;28;20065;-66
2022/07/09 10:40:27;;;;;;;7.63;2.17;;;;;;;;;;4982778;28;20061;-65
2022/07/09 10:43:03;;;;;;;11.75;2.28;;;;;;;;;;4978845;28;20108;-65
2022/07/09 10:45:31;;;;;;;10.40;1.70;;;;;;;;;;4966234;28;20129;-65
2022/07/09 10:47:59;;;;;;;7.05;1.45;;;;;;;;;;4981627;28;20078;-65
2022/07/09 10:50:28;;;;;;;7.38;1.83;;;;;;;;;;4983290;28;20113;-65
2022/07/09 10:52:55;;;;;;;5.35;1.20;;;;;;;;;;4981846;28;20146;-66
2022/07/09 10:55:23;;;;;;;6.40;1.35;;;;;;;;;;4983060;28;20073;-66
2022/07/09 10:57:50;;;;;;;6.63;1.42;;;;;;;;;;4982105;28;20549;-65
2022/07/09 11:00:20;;;;;;;6.28;1.60;;;;;;;;;;4982608;28;20433;-65
2022/07/09 11:02:54;;;;;;;7.80;1.63;;;;;;;;;;4981063;28;20807;-65
2022/07/09 11:05:21;;;;;;;5.47;1.40;;;;;;;;;;4982516;28;20047;-66
2022/07/09 11:07:55;;;;;;;4.15;1.23;;;;;;;;;;4982268;28;20053;-65
2022/07/09 11:10:23;;;;;;;8.57;1.55;;;;;;;;;;4983051;28;20050;-66
2022/07/09 11:12:50;;;;;;;5.85;1.33;;;;;;;;;;4981484;28;20049;-65
2022/07/09 11:15:22;;;;;;;7.90;1.67;;;;;;;;;;4981351;28;20124;-65
2022/07/09 11:17:56;;;;;;;4.47;1.40;;;;;;;;;;4983642;28;20042;-65
2022/07/09 11:20:23;;;;;;;5.50;1.45;;;;;;;;;;4970531;28;20046;-66
2022/07/09 11:22:50;;;;;;;6.38;1.77;;;;;;;;;;4975376;28;20054;-66
2022/07/09 11:25:18;;;;;;;6.53;1.58;;;;;;;;;;4985103;28;20050;-66
2022/07/09 11:27:45;;;;;;;6.28;1.30;;;;;;;;;;4984801;28;20104;-67
2022/07/09 11:30:14;;;;;;;5.72;1.40;;;;;;;;;;4985226;28;20056;-66
2022/07/09 11:32:43;;;;;;;8.85;1.60;;;;;;;;;;4986650;28;20465;-66
2022/07/09 11:35:10;;;;;;;5.32;1.20;;;;;;;;;;4979872;28;20117;-66
2022/07/09 11:37:38;;;;;;;6.43;1.58;;;;;;;;;;4984810;28;20070;-66
2022/07/09 11:40:05;;;;;;;5.68;1.27;;;;;;;;;;4985821;28;20050;-66
2022/07/09 11:42:33;;;;;;;9.70;1.40;;;;;;;;;;4986736;28;20050;-66
2022/07/09 11:45:00;;;;;;;5.70;1.35;;;;;;;;;;4983705;28;20481;-66
2022/07/09 11:47:34;;;;;;;6.15;1.55;;;;;;;;;;4985978;28;20064;-66
2022/07/09 11:50:10;;;;;;;3.70;1.30;;;;;;;;;;4984119;28;20494;-66
2022/07/09 11:52:37;;;;;;;6.95;1.42;;;;;;;;;;4984954;28;20055;-66
2022/07/09 11:55:06;;;;;;;5.88;1.10;;;;;;;;;;4982779;28;20105;-66
2022/07/09 11:57:34;;;;;;;3.90;1.15;;;;;;;;;;4969001;28;20055;-66
2022/07/09 12:00:01;;;;;;;6.47;1.38;;;;;;;;;;4990304;28;20496;-66
2022/07/09 12:02:31;;;;;;;7.40;1.60;;;;;;;;;;4988856;28;20042;-66
2022/07/09 12:04:58;;;;;;;6.10;1.50;;;;;;;;;;4984816;28;20054;-66
2022/07/09 12:07:27;;;;;;;5.28;1.90;;;;;;;;;;4984457;28;20390;-66
2022/07/09 12:10:01;;;;;;;6.00;1.70;;;;;;;;;;4986680;28;20394;-67
2022/07/09 12:12:29;;;;;;;6.05;1.63;;;;;;;;;;4984221;28;20058;-66
2022/07/09 12:14:56;;;;;;;4.43;1.50;;;;;;;;;;4969275;28;20083;-66
2022/07/09 12:17:27;;;;;;;6.20;1.95;;;;;;;;;;4985638;28;20120;-66
2022/07/09 12:19:54;;;;;;;7.25;1.67;;;;;;;;;;4980293;28;20038;-66
2022/07/09 12:22:23;;;;;;;7.57;1.75;;;;;;;;;;4985132;28;20058;-66
2022/07/09 12:24:52;;;;;;;6.05;1.45;;;;;;;;;;4984581;28;20046;-66
2022/07/09 12:27:20;;;;;;;3.15;1.25;;;;;;;;;;4984610;28;20480;-66
2022/07/09 12:29:47;;;;;;;8.45;1.70;;;;;;;;;;4981427;28;20085;-67
2022/07/09 12:32:15;;;;;;;5.72;1.50;;;;;;;;;;4985619;28;20116;-66
2022/07/09 12:34:42;;;;;;;7.40;1.60;;;;;;;;;;4991359;28;20050;-66
2022/07/09 12:37:09;;;;;;;6.38;2.00;;;;;;;;;;4981277;28;20042;-67
2022/07/09 12:39:36;;;;;;;4.15;1.48;;;;;;;;;;4979317;28;20504;-66
2022/07/09 12:42:05;;;;;;;4.30;1.80;;;;;;;;;;4981401;28;20112;-67
2022/07/09 12:44:32;;;;;;;6.28;1.60;;;;;;;;;;4976587;28;20673;-66
2022/07/09 12:47:00;;;;;;;6.60;1.70;;;;;;;;;;4981542;28;20069;-66
2022/07/09 12:49:27;;;;;;;5.53;1.75;;;;;;;;;;4982613;28;20058;-67
2022/07/09 12:51:54;;;;;;;7.88;1.60;;;;;;;;;;4988372;28;20467;-66
2022/07/09 12:54:21;;;;;;;6.97;1.60;;;;;;;;;;4990848;28;20046;-66
2022/07/09 12:56:50;;;;;;;5.10;1.85;;;;;;;;;;4993102;28;20042;-66
2022/07/09 12:59:19;;;;;;;9.30;1.92;;;;;;;;;;4990314;28;20062;-66
2022/07/09 13:01:46;;;;;;;8.23;1.33;;;;;;;;;;4982434;28;20051;-67
2022/07/09 13:04:13;;;;;;;4.85;1.60;;;;;;;;;;4976565;28;20461;-67
2022/07/09 13:06:40;;;;;;;6.30;1.40;;;;;;;;;;4984032;28;20050;-66
2022/07/09 13:09:09;;;;;;;6.03;1.73;;;;;;;;;;4981757;28;20050;-66
2022/07/09 13:11:36;;;;;;;7.82;1.73;;;;;;;;;;4970029;28;20508;-66
2022/07/09 13:14:04;;;;;;;4.07;1.40;;;;;;;;;;4984746;28;20065;-66
2022/07/09 13:16:32;;;;;;;5.28;1.77;;;;;;;;;;4990884;28;20473;-65
2022/07/09 13:19:00;;;;;;;5.78;1.52;;;;;;;;;;4969284;28;20058;-66
2022/07/09 13:21:27;;;;;;;6.80;1.73;;;;;;;;;;4993150;28;20061;-66
2022/07/09 13:23:54;;;;;;;6.20;1.95;;;;;;;;;;4988899;28;20046;-66
2022/07/09 13:26:21;;;;;;;9.15;2.00;;;;;;;;;;4990246;28;20665;-66
2022/07/09 13:28:49;;;;;;;8.90;2.00;;;;;;;;;;4987579;28;20054;-65
2022/07/09 13:31:16;;;;;;;6.45;1.67;;;;;;;;;;4997643;28;20054;-66
2022/07/09 13:33:45;;;;;;;7.32;1.83;;;;;;;;;;4985112;28;20062;-66
2022/07/09 13:36:12;;;;;;;10.40;2.00;;;;;;;;;;4993202;28;20046;-66
2022/07/09 13:38:39;;;;;;;10.15;1.88;;;;;;;;;;4993177;28;20610;-66
2022/07/09 13:41:06;;;;;;;7.35;1.80;;;;;;;;;;4981247;28;20050;-65
2022/07/09 13:43:33;;;;;;;5.32;1.40;;;;;;;;;;4989669;28;20050;-66
2022/07/09 13:46:01;;;;;;;9.07;2.13;;;;;;;;;;4983923;28;20054;-66
2022/07/09 13:48:28;;;;;;;7.85;1.52;;;;;;;;;;4989694;28;20050;-66
2022/07/09 13:50:57;;;;;;;7.95;2.17;;;;;;;;;;4989035;28;20053;-66
2022/07/09 13:53:24;;;;;;;9.43;1.70;;;;;;;;;;4987789;28;20135;-65
2022/07/09 13:55:51;;;;;;;6.75;1.52;;;;;;;;;;4981086;28;20061;-66
2022/07/09 13:58:19;;;;;;;7.25;1.90;;;;;;;;;;4967867;28;20116;-66
2022/07/09 14:00:46;;;;;;;5.13;1.85;;;;;;;;;;4992130;28;20057;-65
2022/07/09 14:03:13;;;;;;;3.60;1.10;;;;;;;;;;4971811;28;20059;-65
2022/07/09 14:05:40;;;;;;;9.50;1.20;;;;;;;;;;4982320;28;20058;-65
2022/07/09 14:08:09;;;;;;;5.90;1.30;;;;;;;;;;4990112;28;20061;-66
2022/07/09 14:10:36;;;;;;;4.68;1.15;;;;;;;;;;4988074;28;20769;-66
2022/07/09 14:13:04;;;;;;;6.45;1.08;;;;;;;;;;4992902;28;20112;-65
2022/07/09 14:15:33;;;;;;;5.43;1.40;;;;;;;;;;4984995;28;20050;-65
2022/07/09 14:18:00;;;;;;;3.92;1.08;;;;;;;;;;4964421;28;20061;-65
2022/07/09 14:20:28;;;;;;;9.15;1.30;;;;;;;;;;4988336;28;20046;-65
2022/07/09 14:22:55;;;;;;;5.35;1.40;;;;;;;;;;4986311;28;20050;-66
2022/07/09 14:25:24;;;;;;;4.85;1.20;;;;;;;;;;4989544;28;20127;-66
2022/07/09 14:27:53;;;;;;;5.07;1.38;;;;;;;;;;4985237;28;20053;-66
2022/07/09 14:30:20;;;;;;;5.60;1.25;;;;;;;;;;4987490;28;20112;-66
2022/07/09 14:32:48;;;;;;;8.15;1.40;;;;;;;;;;4992654;28;20668;-65
2022/07/09 14:35:15;;;;;;;4.78;1.45;;;;;;;;;;4986911;28;20109;-65
2022/07/09 14:37:42;;;;;;;10.25;1.70;;;;;;;;;;4988699;28;20086;-66
2022/07/09 14:40:10;;;;;;;7.63;1.70;;;;;;;;;;4983344;28;20405;-66
2022/07/09 14:42:40;;;;;;;7.10;1.60;;;;;;;;;;4983409;28;20061;-67